sensor_id;sensor_type;location;lat;lon;timestamp;pressure;altitude;pressure_sealevel;temperature;humidity
6198;BME280;3132;42.622;23.328;2023-07-31T00:01:52;92548.31;;;20.02;100.00
6198;BME280;3132;42.622;23.328;2023-07-31T00:04:17;92563.09;;;20.03;100.00
6198;BME280;3132;42.622;23.328;2023-07-31T00:06:43;92561.88;;;20.01;100.00
6198;BME280;3132;42.622;23.328;2023-07-31T00:09:08;92559.56;;;19.99;100.00
6198;BME280;3132;42.622;23.328;2023-07-31T00:11:34;92566.84;;;20.02;100.00
6198;BME280;3132;42.622;23.328;2023-07-31T00:13:59;92543.47;;;19.92;100.00
6198;BME280;3132;42.622;23.328;2023-07-31T00:16:25;92554.94;;;19.96;100.00
6198;BME280;3132;42.622;23.328;2023-07-31T00:18:50;92561.09;;;20.00;100.00
6198;BME280;3132;42.622;23.328;2023-07-31T00:21:16;92562.84;;;20.08;100.00
6198;BME280;3132;42.622;23.328;2023-07-31T00:23:41;92554.69;;;20.13;100.00
6198;BME280;3132;42.622;23.328;2023-07-31T00:26:06;92550.78;;;19.95;100.00
6198;BME280;3132;42.622;23.328;2023-07-31T00:28:32;92548.53;;;19.97;100.00
6198;BME280;3132;42.622;23.328;2023-07-31T00:30:57;92549.53;;;19.93;100.00
6198;BME280;3132;42.622;23.328;2023-07-31T00:33:22;92533.75;;;19.96;100.00
6198;BME280;3132;42.622;23.328;2023-07-31T00:35:48;92531.78;;;19.93;100.00
6198;BME280;3132;42.622;23.328;2023-07-31T00:38:14;92513.28;;;19.81;100.00
6198;BME280;3132;42.622;23.328;2023-07-31T00:40:39;92522.25;;;19.92;100.00
6198;BME280;3132;42.622;23.328;2023-07-31T00:43:04;92517.63;;;19.89;100.00
6198;BME280;3132;42.622;23.328;2023-07-31T00:45:30;92522.53;;;19.87;100.00
6198;BME280;3132;42.622;23.328;2023-07-31T00:47:56;92516.00;;;19.85;100.00
6198;BME280;3132;42.622;23.328;2023-07-31T00:50:24;92519.94;;;19.91;100.00
6198;BME280;3132;42.622;23.328;2023-07-31T00:52:49;92525.53;;;19.74;100.00
6198;BME280;3132;42.622;23.328;2023-07-31T00:55:15;92529.19;;;19.69;100.00
6198;BME280;3132;42.622;23.328;2023-07-31T00:57:41;92515.38;;;19.76;100.00
6198;BME280;3132;42.622;23.328;2023-07-31T01:00:07;92521.22;;;19.81;100.00
6198;BME280;3132;42.622;23.328;2023-07-31T01:02:32;92533.47;;;19.86;100.00
6198;BME280;3132;42.622;23.328;2023-07-31T01:04:58;92530.75;;;19.70;100.00
6198;BME280;3132;42.622;23.328;2023-07-31T01:07:31;92515.75;;;19.62;100.00
6198;BME280;3132;42.622;23.328;2023-07-31T01:12:34;92516.00;;;19.57;100.00
6198;BME280;3132;42.622;23.328;2023-07-31T01:15:06;92514.00;;;19.54;100.00
6198;BME280;3132;42.622;23.328;2023-07-31T01:17:36;92501.78;;;19.50;100.00
6198;BME280;3132;42.622;23.328;2023-07-31T01:20:03;92506.97;;;19.46;100.00
6198;BME280;3132;42.622;23.328;2023-07-31T01:27:46;92500.69;;;19.14;100.00
6198;BME280;3132;42.622;23.328;2023-07-31T01:30:16;92512.63;;;18.96;100.00
6198;BME280;3132;42.622;23.328;2023-07-31T01:32:47;92506.78;;;19.03;100.00
6198;BME280;3132;42.622;23.328;2023-07-31T01:35:13;92505.22;;;19.02;100.00
6198;BME280;3132;42.622;23.328;2023-07-31T01:37:38;92496.66;;;19.05;100.00
6198;BME280;3132;42.622;23.328;2023-07-31T01:40:05;92502.06;;;18.84;100.00
6198;BME280;3132;42.622;23.328;2023-07-31T01:42:31;92496.47;;;18.74;100.00
6198;BME280;3132;42.622;23.328;2023-07-31T01:44:56;92494.00;;;18.81;100.00
6198;BME280;3132;42.622;23.328;2023-07-31T01:47:22;92497.53;;;18.73;100.00
6198;BME280;3132;42.622;23.328;2023-07-31T01:49:48;92498.66;;;18.60;100.00
6198;BME280;3132;42.622;23.328;2023-07-31T01:52:14;92504.38;;;18.74;100.00
6198;BME280;3132;42.622;23.328;2023-07-31T01:54:39;92513.19;;;19.02;100.00
6198;BME280;3132;42.622;23.328;2023-07-31T01:57:05;92503.25;;;19.11;100.00
6198;BME280;3132;42.622;23.328;2023-07-31T01:59:30;92502.59;;;18.90;100.00
6198;BME280;3132;42.622;23.328;2023-07-31T02:01:55;92504.81;;;19.00;100.00
6198;BME280;3132;42.622;23.328;2023-07-31T02:04:21;92514.53;;;19.08;100.00
6198;BME280;3132;42.622;23.328;2023-07-31T02:06:46;92513.84;;;19.23;100.00
6198;BME280;3132;42.622;23.328;2023-07-31T02:09:11;92522.31;;;19.16;100.00
6198;BME280;3132;42.622;23.328;2023-07-31T02:11:37;92507.44;;;19.12;100.00
6198;BME280;3132;42.622;23.328;2023-07-31T02:14:02;92522.66;;;19.15;100.00
6198;BME280;3132;42.622;23.328;2023-07-31T02:16:28;92517.16;;;19.20;100.00
6198;BME280;3132;42.622;23.328;2023-07-31T02:18:53;92524.97;;;19.16;100.00
6198;BME280;3132;42.622;23.328;2023-07-31T02:21:18;92527.50;;;19.13;100.00
6198;BME280;3132;42.622;23.328;2023-07-31T02:23:44;92521.66;;;19.19;100.00
6198;BME280;3132;42.622;23.328;2023-07-31T02:26:09;92522.63;;;19.27;100.00
6198;BME280;3132;42.622;23.328;2023-07-31T02:28:34;92496.19;;;19.15;100.00
6198;BME280;3132;42.622;23.328;2023-07-31T02:31:00;92524.09;;;19.37;100.00
6198;BME280;3132;42.622;23.328;2023-07-31T02:33:25;92520.88;;;19.43;100.00
6198;BME280;3132;42.622;23.328;2023-07-31T02:35:50;92521.75;;;19.47;100.00
6198;BME280;3132;42.622;23.328;2023-07-31T02:38:16;92525.81;;;19.57;100.00
6198;BME280;3132;42.622;23.328;2023-07-31T02:40:41;92519.22;;;19.51;100.00
6198;BME280;3132;42.622;23.328;2023-07-31T02:43:07;92521.72;;;19.59;100.00
6198;BME280;3132;42.622;23.328;2023-07-31T02:45:33;92503.53;;;19.46;100.00
6198;BME280;3132;42.622;23.328;2023-07-31T02:47:58;92524.16;;;19.52;100.00
6198;BME280;3132;42.622;23.328;2023-07-31T02:50:24;92512.25;;;19.46;100.00
6198;BME280;3132;42.622;23.328;2023-07-31T02:52:49;92529.34;;;19.49;100.00
6198;BME280;3132;42.622;23.328;2023-07-31T02:55:14;92531.88;;;19.57;100.00
6198;BME280;3132;42.622;23.328;2023-07-31T02:57:40;92539.38;;;19.55;100.00
6198;BME280;3132;42.622;23.328;2023-07-31T03:00:06;92536.31;;;19.53;100.00
6198;BME280;3132;42.622;23.328;2023-07-31T03:02:32;92540.47;;;19.66;100.00
6198;BME280;3132;42.622;23.328;2023-07-31T03:04:57;92543.34;;;19.61;100.00
6198;BME280;3132;42.622;23.328;2023-07-31T03:07:23;92550.59;;;19.76;100.00
6198;BME280;3132;42.622;23.328;2023-07-31T03:09:48;92535.50;;;19.65;100.00
6198;BME280;3132;42.622;23.328;2023-07-31T03:12:13;92544.41;;;19.72;100.00
6198;BME280;3132;42.622;23.328;2023-07-31T03:14:39;92552.63;;;19.67;100.00
6198;BME280;3132;42.622;23.328;2023-07-31T03:17:05;92560.19;;;19.81;100.00
6198;BME280;3132;42.622;23.328;2023-07-31T03:19:31;92531.44;;;19.67;100.00
6198;BME280;3132;42.622;23.328;2023-07-31T03:21:57;92555.91;;;19.76;100.00
6198;BME280;3132;42.622;23.328;2023-07-31T03:24:23;92557.00;;;19.75;100.00
6198;BME280;3132;42.622;23.328;2023-07-31T03:26:48;92561.50;;;19.87;100.00
6198;BME280;3132;42.622;23.328;2023-07-31T03:29:13;92550.91;;;19.87;100.00
6198;BME280;3132;42.622;23.328;2023-07-31T03:31:39;92562.28;;;19.87;100.00
6198;BME280;3132;42.622;23.328;2023-07-31T03:34:04;92566.50;;;19.76;100.00
6198;BME280;3132;42.622;23.328;2023-07-31T03:36:29;92563.84;;;19.76;100.00
6198;BME280;3132;42.622;23.328;2023-07-31T03:38:55;92561.53;;;19.75;100.00
6198;BME280;3132;42.622;23.328;2023-07-31T03:41:20;92569.81;;;19.61;100.00
6198;BME280;3132;42.622;23.328;2023-07-31T03:43:51;92576.13;;;19.69;100.00
6198;BME280;3132;42.622;23.328;2023-07-31T03:46:22;92581.09;;;19.70;100.00
6198;BME280;3132;42.622;23.328;2023-07-31T03:48:48;92580.09;;;19.75;100.00
6198;BME280;3132;42.622;23.328;2023-07-31T03:51:13;92579.53;;;19.81;100.00
6198;BME280;3132;42.622;23.328;2023-07-31T03:53:38;92581.06;;;19.82;100.00
6198;BME280;3132;42.622;23.328;2023-07-31T03:56:04;92583.16;;;19.77;100.00
6198;BME280;3132;42.622;23.328;2023-07-31T03:58:30;92564.41;;;19.70;100.00
6198;BME280;3132;42.622;23.328;2023-07-31T04:00:55;92585.84;;;19.65;100.00
6198;BME280;3132;42.622;23.328;2023-07-31T04:03:20;92573.38;;;19.65;100.00
6198;BME280;3132;42.622;23.328;2023-07-31T04:05:46;92584.59;;;19.74;100.00
6198;BME280;3132;42.622;23.328;2023-07-31T04:08:11;92591.69;;;19.70;100.00
6198;BME280;3132;42.622;23.328;2023-07-31T04:10:36;92566.09;;;19.62;100.00
6198;BME280;3132;42.622;23.328;2023-07-31T04:13:02;92589.00;;;19.82;99.36
6198;BME280;3132;42.622;23.328;2023-07-31T04:15:27;92596.94;;;19.82;99.11
6198;BME280;3132;42.622;23.328;2023-07-31T04:17:53;92592.44;;;19.83;98.66
6198;BME280;3132;42.622;23.328;2023-07-31T04:20:18;92585.69;;;19.85;98.16
6198;BME280;3132;42.622;23.328;2023-07-31T04:22:43;92603.31;;;19.93;97.26
6198;BME280;3132;42.622;23.328;2023-07-31T04:25:09;92594.31;;;19.82;96.49
6198;BME280;3132;42.622;23.328;2023-07-31T04:27:34;92594.16;;;19.91;97.17
6198;BME280;3132;42.622;23.328;2023-07-31T04:29:59;92602.88;;;19.91;96.63
6198;BME280;3132;42.622;23.328;2023-07-31T04:32:25;92598.66;;;20.02;95.85
6198;BME280;3132;42.622;23.328;2023-07-31T04:34:50;92604.75;;;20.03;96.19
6198;BME280;3132;42.622;23.328;2023-07-31T04:37:16;92610.38;;;20.01;95.21
6198;BME280;3132;42.622;23.328;2023-07-31T04:39:41;92604.63;;;19.99;94.99
6198;BME280;3132;42.622;23.328;2023-07-31T04:42:06;92606.72;;;20.06;94.23
6198;BME280;3132;42.622;23.328;2023-07-31T04:44:32;92608.56;;;20.17;94.69
6198;BME280;3132;42.622;23.328;2023-07-31T04:46:57;92602.16;;;20.06;93.98
6198;BME280;3132;42.622;23.328;2023-07-31T04:49:22;92600.63;;;20.17;92.53
6198;BME280;3132;42.622;23.328;2023-07-31T04:51:48;92606.81;;;20.21;91.74
6198;BME280;3132;42.622;23.328;2023-07-31T04:54:13;92599.78;;;20.01;92.40
6198;BME280;3132;42.622;23.328;2023-07-31T04:56:40;92610.13;;;20.18;91.40
6198;BME280;3132;42.622;23.328;2023-07-31T04:59:06;92595.47;;;20.36;89.79
6198;BME280;3132;42.622;23.328;2023-07-31T05:01:32;92601.88;;;20.79;88.79
6198;BME280;3132;42.622;23.328;2023-07-31T05:03:57;92593.69;;;20.84;86.89
6198;BME280;3132;42.622;23.328;2023-07-31T05:06:22;92594.03;;;21.29;84.88
6198;BME280;3132;42.622;23.328;2023-07-31T05:08:48;92597.53;;;21.48;84.81
6198;BME280;3132;42.622;23.328;2023-07-31T05:11:13;92602.44;;;21.31;84.66
6198;BME280;3132;42.622;23.328;2023-07-31T05:13:39;92603.53;;;21.30;84.77
6198;BME280;3132;42.622;23.328;2023-07-31T05:16:04;92600.22;;;21.02;87.08
6198;BME280;3132;42.622;23.328;2023-07-31T05:18:29;92598.50;;;21.09;85.59
6198;BME280;3132;42.622;23.328;2023-07-31T05:20:55;92601.81;;;20.91;86.77
6198;BME280;3132;42.622;23.328;2023-07-31T05:23:20;92604.16;;;21.08;85.61
6198;BME280;3132;42.622;23.328;2023-07-31T05:25:46;92595.16;;;21.28;84.10
6198;BME280;3132;42.622;23.328;2023-07-31T05:28:12;92604.31;;;21.46;83.78
6198;BME280;3132;42.622;23.328;2023-07-31T05:30:37;92593.94;;;21.41;83.10
6198;BME280;3132;42.622;23.328;2023-07-31T05:33:03;92600.53;;;21.47;83.60
6198;BME280;3132;42.622;23.328;2023-07-31T05:35:28;92603.34;;;21.54;82.67
6198;BME280;3132;42.622;23.328;2023-07-31T05:37:54;92603.06;;;21.59;82.84
6198;BME280;3132;42.622;23.328;2023-07-31T05:40:19;92596.03;;;21.82;84.23
6198;BME280;3132;42.622;23.328;2023-07-31T05:42:44;92600.63;;;21.50;83.13
6198;BME280;3132;42.622;23.328;2023-07-31T05:45:10;92599.56;;;21.55;83.14
6198;BME280;3132;42.622;23.328;2023-07-31T05:47:35;92595.53;;;21.61;81.64
6198;BME280;3132;42.622;23.328;2023-07-31T05:50:01;92595.56;;;21.95;81.29
6198;BME280;3132;42.622;23.328;2023-07-31T05:52:26;92590.53;;;22.09;78.60
6198;BME280;3132;42.622;23.328;2023-07-31T05:54:54;92595.53;;;22.30;78.08
6198;BME280;3132;42.622;23.328;2023-07-31T05:57:19;92597.66;;;21.86;77.28
6198;BME280;3132;42.622;23.328;2023-07-31T05:59:45;92607.69;;;22.50;76.22
6198;BME280;3132;42.622;23.328;2023-07-31T06:02:10;92609.41;;;24.23;70.18
6198;BME280;3132;42.622;23.328;2023-07-31T06:04:36;92621.59;;;25.67;63.18
6198;BME280;3132;42.622;23.328;2023-07-31T06:07:01;92612.31;;;25.51;61.58
6198;BME280;3132;42.622;23.328;2023-07-31T06:09:28;92620.69;;;26.64;58.76
6198;BME280;3132;42.622;23.328;2023-07-31T06:11:53;92627.88;;;26.60;56.81
6198;BME280;3132;42.622;23.328;2023-07-31T06:14:18;92628.53;;;28.10;53.19
6198;BME280;3132;42.622;23.328;2023-07-31T06:16:44;92626.22;;;27.77;51.14
6198;BME280;3132;42.622;23.328;2023-07-31T06:19:10;92631.50;;;28.61;50.11
6198;BME280;3132;42.622;23.328;2023-07-31T06:21:35;92632.28;;;28.44;49.02
6198;BME280;3132;42.622;23.328;2023-07-31T06:24:03;92621.88;;;29.98;45.89
6198;BME280;3132;42.622;23.328;2023-07-31T06:26:29;92628.28;;;28.98;47.69
6198;BME280;3132;42.622;23.328;2023-07-31T06:28:54;92638.44;;;29.93;45.57
6198;BME280;3132;42.622;23.328;2023-07-31T06:31:19;92636.75;;;28.89;47.55
6198;BME280;3132;42.622;23.328;2023-07-31T06:33:48;92620.34;;;28.66;48.99
6198;BME280;3132;42.622;23.328;2023-07-31T06:36:14;92620.66;;;28.82;48.14
6198;BME280;3132;42.622;23.328;2023-07-31T06:38:39;92607.84;;;27.30;51.44
6198;BME280;3132;42.622;23.328;2023-07-31T06:41:05;92607.22;;;25.35;57.61
6198;BME280;3132;42.622;23.328;2023-07-31T06:43:30;92598.25;;;23.39;64.03
6198;BME280;3132;42.622;23.328;2023-07-31T06:45:55;92601.63;;;22.91;66.02
6198;BME280;3132;42.622;23.328;2023-07-31T06:48:21;92603.53;;;22.91;65.75
6198;BME280;3132;42.622;23.328;2023-07-31T06:50:46;92603.75;;;22.82;66.37
6198;BME280;3132;42.622;23.328;2023-07-31T06:53:11;92610.88;;;23.20;66.40
6198;BME280;3132;42.622;23.328;2023-07-31T06:55:37;92608.31;;;23.04;67.20
6198;BME280;3132;42.622;23.328;2023-07-31T06:58:02;92627.84;;;22.13;70.49
6198;BME280;3132;42.622;23.328;2023-07-31T07:00:28;92628.25;;;21.96;70.78
6198;BME280;3132;42.622;23.328;2023-07-31T07:02:53;92614.75;;;22.04;72.10
6198;BME280;3132;42.622;23.328;2023-07-31T07:05:19;92598.25;;;22.53;70.90
6198;BME280;3132;42.622;23.328;2023-07-31T07:07:45;92608.94;;;22.75;69.06
6198;BME280;3132;42.622;23.328;2023-07-31T07:10:10;92622.53;;;22.13;70.59
6198;BME280;3132;42.622;23.328;2023-07-31T07:12:36;92616.22;;;22.78;69.21
6198;BME280;3132;42.622;23.328;2023-07-31T07:15:02;92617.91;;;22.48;69.77
6198;BME280;3132;42.622;23.328;2023-07-31T07:17:29;92612.69;;;22.71;70.66
6198;BME280;3132;42.622;23.328;2023-07-31T07:19:58;92621.56;;;22.78;69.21
6198;BME280;3132;42.622;23.328;2023-07-31T07:22:24;92616.59;;;22.77;69.11
6198;BME280;3132;42.622;23.328;2023-07-31T07:24:50;92611.44;;;22.87;68.22
6198;BME280;3132;42.622;23.328;2023-07-31T07:27:16;92613.19;;;22.99;70.05
6198;BME280;3132;42.622;23.328;2023-07-31T07:29:41;92621.38;;;22.90;68.94
6198;BME280;3132;42.622;23.328;2023-07-31T07:32:07;92614.66;;;22.77;68.78
6198;BME280;3132;42.622;23.328;2023-07-31T07:34:32;92617.94;;;22.67;68.13
6198;BME280;3132;42.622;23.328;2023-07-31T07:36:58;92623.69;;;22.69;68.17
6198;BME280;3132;42.622;23.328;2023-07-31T07:39:23;92615.53;;;22.62;68.89
6198;BME280;3132;42.622;23.328;2023-07-31T07:41:48;92624.22;;;23.01;68.88
6198;BME280;3132;42.622;23.328;2023-07-31T07:44:14;92634.69;;;22.90;67.34
6198;BME280;3132;42.622;23.328;2023-07-31T07:46:40;92631.63;;;22.88;68.61
6198;BME280;3132;42.622;23.328;2023-07-31T07:49:05;92634.47;;;23.21;66.70
6198;BME280;3132;42.622;23.328;2023-07-31T07:51:31;92625.78;;;23.24;66.15
6198;BME280;3132;42.622;23.328;2023-07-31T07:54:00;92637.19;;;23.44;65.21
6198;BME280;3132;42.622;23.328;2023-07-31T07:56:26;92654.47;;;22.89;67.34
6198;BME280;3132;42.622;23.328;2023-07-31T07:58:52;92646.13;;;22.91;67.16
6198;BME280;3132;42.622;23.328;2023-07-31T08:01:18;92640.44;;;22.92;68.12
6198;BME280;3132;42.622;23.328;2023-07-31T08:03:43;92636.56;;;23.09;66.38
6198;BME280;3132;42.622;23.328;2023-07-31T08:06:09;92639.97;;;23.28;65.65
6198;BME280;3132;42.622;23.328;2023-07-31T08:08:35;92654.84;;;23.10;66.83
6198;BME280;3132;42.622;23.328;2023-07-31T08:11:01;92637.72;;;23.30;65.39
6198;BME280;3132;42.622;23.328;2023-07-31T08:13:27;92641.84;;;23.50;65.95
6198;BME280;3132;42.622;23.328;2023-07-31T08:15:52;92647.38;;;23.38;66.42
6198;BME280;3132;42.622;23.328;2023-07-31T08:18:18;92640.09;;;23.35;65.14
6198;BME280;3132;42.622;23.328;2023-07-31T08:20:44;92638.66;;;23.41;65.54
6198;BME280;3132;42.622;23.328;2023-07-31T08:23:09;92645.41;;;23.35;65.79
6198;BME280;3132;42.622;23.328;2023-07-31T08:25:35;92644.84;;;23.71;64.45
6198;BME280;3132;42.622;23.328;2023-07-31T08:28:02;92649.97;;;23.35;65.52
6198;BME280;3132;42.622;23.328;2023-07-31T08:30:27;92643.72;;;23.72;64.44
6198;BME280;3132;42.622;23.328;2023-07-31T08:32:52;92639.31;;;22.93;65.64
6198;BME280;3132;42.622;23.328;2023-07-31T08:35:18;92654.41;;;22.86;66.92
6198;BME280;3132;42.622;23.328;2023-07-31T08:37:43;92643.47;;;23.32;64.38
6198;BME280;3132;42.622;23.328;2023-07-31T08:40:09;92638.84;;;23.10;65.60
6198;BME280;3132;42.622;23.328;2023-07-31T08:42:43;92642.19;;;23.71;65.46
6198;BME280;3132;42.622;23.328;2023-07-31T08:45:09;92651.63;;;24.18;62.24
6198;BME280;3132;42.622;23.328;2023-07-31T08:47:34;92652.91;;;24.27;61.40
6198;BME280;3132;42.622;23.328;2023-07-31T08:50:01;92643.25;;;23.44;62.66
6198;BME280;3132;42.622;23.328;2023-07-31T08:52:27;92640.50;;;23.37;63.58
6198;BME280;3132;42.622;23.328;2023-07-31T08:54:52;92649.72;;;23.92;63.13
6198;BME280;3132;42.622;23.328;2023-07-31T08:57:17;92662.34;;;23.95;61.10
6198;BME280;3132;42.622;23.328;2023-07-31T08:59:43;92659.91;;;23.38;63.14
6198;BME280;3132;42.622;23.328;2023-07-31T09:02:10;92650.22;;;23.07;64.12
6198;BME280;3132;42.622;23.328;2023-07-31T09:04:36;92639.97;;;23.28;63.29
6198;BME280;3132;42.622;23.328;2023-07-31T09:07:03;92660.69;;;23.38;61.71
6198;BME280;3132;42.622;23.328;2023-07-31T09:09:30;92666.25;;;23.52;61.94
6198;BME280;3132;42.622;23.328;2023-07-31T09:11:57;92652.41;;;23.24;62.82
6198;BME280;3132;42.622;23.328;2023-07-31T09:14:25;92650.47;;;23.21;62.41
6198;BME280;3132;42.622;23.328;2023-07-31T09:16:58;92648.09;;;23.61;61.93
6198;BME280;3132;42.622;23.328;2023-07-31T09:19:34;92638.09;;;24.04;62.54
6198;BME280;3132;42.622;23.328;2023-07-31T09:22:03;92647.28;;;24.65;58.91
6198;BME280;3132;42.622;23.328;2023-07-31T09:24:30;92630.34;;;23.95;59.26
6198;BME280;3132;42.622;23.328;2023-07-31T09:26:56;92639.31;;;24.10;59.59
6198;BME280;3132;42.622;23.328;2023-07-31T09:29:23;92640.19;;;24.47;59.05
6198;BME280;3132;42.622;23.328;2023-07-31T09:31:50;92637.13;;;24.45;58.22
6198;BME280;3132;42.622;23.328;2023-07-31T09:34:16;92630.22;;;24.44;58.77
6198;BME280;3132;42.622;23.328;2023-07-31T09:36:42;92630.56;;;24.39;59.59
6198;BME280;3132;42.622;23.328;2023-07-31T09:39:09;92617.41;;;24.56;59.06
6198;BME280;3132;42.622;23.328;2023-07-31T09:41:43;92630.16;;;25.03;56.70
6198;BME280;3132;42.622;23.328;2023-07-31T09:44:10;92630.75;;;24.86;57.86
6198;BME280;3132;42.622;23.328;2023-07-31T09:46:36;92625.97;;;25.02;56.96
6198;BME280;3132;42.622;23.328;2023-07-31T09:49:11;92627.47;;;25.03;55.93
6198;BME280;3132;42.622;23.328;2023-07-31T09:51:38;92624.56;;;25.15;57.50
6198;BME280;3132;42.622;23.328;2023-07-31T09:54:14;92625.97;;;25.39;55.93
6198;BME280;3132;42.622;23.328;2023-07-31T09:56:47;92616.88;;;25.50;55.82
6198;BME280;3132;42.622;23.328;2023-07-31T09:59:15;92615.19;;;25.82;54.14
6198;BME280;3132;42.622;23.328;2023-07-31T10:01:42;92625.44;;;25.70;54.25
6198;BME280;3132;42.622;23.328;2023-07-31T10:04:09;92613.78;;;25.45;54.37
6198;BME280;3132;42.622;23.328;2023-07-31T10:06:36;92614.13;;;24.99;56.60
6198;BME280;3132;42.622;23.328;2023-07-31T10:09:09;92622.00;;;25.25;55.52
6198;BME280;3132;42.622;23.328;2023-07-31T10:11:51;92615.94;;;25.32;54.38
6198;BME280;3132;42.622;23.328;2023-07-31T10:14:21;92601.94;;;25.46;54.36
6198;BME280;3132;42.622;23.328;2023-07-31T10:16:49;92633.47;;;26.24;53.27
6198;BME280;3132;42.622;23.328;2023-07-31T10:19:14;92627.13;;;25.95;52.02
6198;BME280;3132;42.622;23.328;2023-07-31T10:21:42;92615.81;;;26.12;51.81
6198;BME280;3132;42.622;23.328;2023-07-31T10:24:08;92621.91;;;26.95;48.97
6198;BME280;3132;42.622;23.328;2023-07-31T10:26:35;92602.91;;;26.35;51.17
6198;BME280;3132;42.622;23.328;2023-07-31T10:29:03;92606.84;;;25.91;51.93
6198;BME280;3132;42.622;23.328;2023-07-31T10:31:29;92603.31;;;25.76;51.19
6198;BME280;3132;42.622;23.328;2023-07-31T10:33:56;92616.97;;;26.18;50.76
6198;BME280;3132;42.622;23.328;2023-07-31T10:36:22;92607.25;;;25.96;49.94
6198;BME280;3132;42.622;23.328;2023-07-31T10:38:50;92615.09;;;26.22;50.14
6198;BME280;3132;42.622;23.328;2023-07-31T10:41:16;92605.88;;;26.13;49.75
6198;BME280;3132;42.622;23.328;2023-07-31T10:43:42;92611.34;;;25.73;50.43
6198;BME280;3132;42.622;23.328;2023-07-31T10:46:11;92609.13;;;25.89;49.85
6198;BME280;3132;42.622;23.328;2023-07-31T10:48:38;92601.09;;;25.85;50.56
6198;BME280;3132;42.622;23.328;2023-07-31T10:51:11;92601.91;;;25.93;50.37
6198;BME280;3132;42.622;23.328;2023-07-31T10:53:38;92595.78;;;25.92;51.21
6198;BME280;3132;42.622;23.328;2023-07-31T10:56:07;92597.63;;;25.34;50.92
6198;BME280;3132;42.622;23.328;2023-07-31T10:58:33;92591.59;;;25.00;52.14
6198;BME280;3132;42.622;23.328;2023-07-31T11:01:00;92587.75;;;25.38;51.45
6198;BME280;3132;42.622;23.328;2023-07-31T11:03:40;92587.56;;;25.20;51.77
6198;BME280;3132;42.622;23.328;2023-07-31T11:06:06;92579.88;;;25.15;51.34
6198;BME280;3132;42.622;23.328;2023-07-31T11:08:33;92585.97;;;25.09;51.19
6198;BME280;3132;42.622;23.328;2023-07-31T11:13:28;92577.22;;;25.59;48.55
6198;BME280;3132;42.622;23.328;2023-07-31T11:15:53;92578.97;;;25.95;48.58
6198;BME280;3132;42.622;23.328;2023-07-31T11:18:19;92582.78;;;25.91;48.39
6198;BME280;3132;42.622;23.328;2023-07-31T11:20:44;92571.91;;;25.63;47.77
6198;BME280;3132;42.622;23.328;2023-07-31T11:23:10;92593.66;;;26.19;46.80
6198;BME280;3132;42.622;23.328;2023-07-31T11:25:38;92587.28;;;26.48;46.61
6198;BME280;3132;42.622;23.328;2023-07-31T11:28:13;92571.59;;;26.46;44.89
6198;BME280;3132;42.622;23.328;2023-07-31T11:30:43;92584.38;;;26.85;44.72
6198;BME280;3132;42.622;23.328;2023-07-31T11:33:10;92585.50;;;26.84;44.07
6198;BME280;3132;42.622;23.328;2023-07-31T11:35:46;92587.03;;;26.70;44.98
6198;BME280;3132;42.622;23.328;2023-07-31T11:38:20;92583.69;;;26.12;45.37
6198;BME280;3132;42.622;23.328;2023-07-31T11:40:47;92585.25;;;26.20;45.34
6198;BME280;3132;42.622;23.328;2023-07-31T11:43:13;92576.94;;;26.39;45.42
6198;BME280;3132;42.622;23.328;2023-07-31T11:45:45;92575.56;;;26.81;44.62
6198;BME280;3132;42.622;23.328;2023-07-31T11:48:18;92578.94;;;26.60;45.38
6198;BME280;3132;42.622;23.328;2023-07-31T11:50:44;92579.91;;;26.27;46.00
6198;BME280;3132;42.622;23.328;2023-07-31T11:53:11;92557.91;;;25.90;46.89
6198;BME280;3132;42.622;23.328;2023-07-31T11:55:38;92562.72;;;25.60;48.72
6198;BME280;3132;42.622;23.328;2023-07-31T11:58:03;92569.38;;;25.87;48.47
6198;BME280;3132;42.622;23.328;2023-07-31T12:00:29;92565.00;;;26.26;47.83
6198;BME280;3132;42.622;23.328;2023-07-31T12:02:55;92575.38;;;26.38;48.02
6198;BME280;3132;42.622;23.328;2023-07-31T12:05:21;92575.69;;;26.16;49.52
6198;BME280;3132;42.622;23.328;2023-07-31T12:07:52;92571.53;;;26.25;48.44
6198;BME280;3132;42.622;23.328;2023-07-31T12:10:29;92569.91;;;26.10;47.04
6198;BME280;3132;42.622;23.328;2023-07-31T12:13:03;92559.06;;;25.89;48.10
6198;BME280;3132;42.622;23.328;2023-07-31T12:15:33;92558.47;;;26.17;47.91
6198;BME280;3132;42.622;23.328;2023-07-31T12:17:59;92560.53;;;26.51;47.01
6198;BME280;3132;42.622;23.328;2023-07-31T12:20:24;92554.03;;;26.56;46.36
6198;BME280;3132;42.622;23.328;2023-07-31T12:22:50;92548.19;;;26.22;46.35
6198;BME280;3132;42.622;23.328;2023-07-31T12:25:16;92555.16;;;26.51;45.66
6198;BME280;3132;42.622;23.328;2023-07-31T12:27:44;92546.50;;;26.90;45.32
6198;BME280;3132;42.622;23.328;2023-07-31T12:30:29;92543.34;;;26.63;45.99
6198;BME280;3132;42.622;23.328;2023-07-31T12:32:55;92556.44;;;26.79;46.47
6198;BME280;3132;42.622;23.328;2023-07-31T12:35:20;92556.31;;;26.47;46.97
6198;BME280;3132;42.622;23.328;2023-07-31T12:37:45;92551.28;;;26.38;46.77
6198;BME280;3132;42.622;23.328;2023-07-31T12:40:11;92540.31;;;26.64;46.69
6198;BME280;3132;42.622;23.328;2023-07-31T12:42:36;92547.94;;;26.62;48.08
6198;BME280;3132;42.622;23.328;2023-07-31T12:45:02;92535.16;;;26.17;48.44
6198;BME280;3132;42.622;23.328;2023-07-31T12:47:29;92540.91;;;26.26;47.20
6198;BME280;3132;42.622;23.328;2023-07-31T12:49:54;92546.22;;;26.16;47.62
6198;BME280;3132;42.622;23.328;2023-07-31T12:52:19;92547.78;;;26.27;47.51
6198;BME280;3132;42.622;23.328;2023-07-31T12:54:45;92536.00;;;25.67;47.60
6198;BME280;3132;42.622;23.328;2023-07-31T12:57:10;92533.56;;;26.02;47.69
6198;BME280;3132;42.622;23.328;2023-07-31T12:59:35;92536.69;;;26.18;46.48
6198;BME280;3132;42.622;23.328;2023-07-31T13:02:01;92534.13;;;26.60;45.58
6198;BME280;3132;42.622;23.328;2023-07-31T13:04:26;92531.19;;;27.04;45.05
6198;BME280;3132;42.622;23.328;2023-07-31T13:06:51;92525.09;;;27.53;43.61
6198;BME280;3132;42.622;23.328;2023-07-31T13:09:17;92511.28;;;26.98;45.10
6198;BME280;3132;42.622;23.328;2023-07-31T13:11:43;92527.22;;;26.45;46.06
6198;BME280;3132;42.622;23.328;2023-07-31T13:14:08;92530.38;;;26.79;46.38